sensor_id;sensor_type;location;lat;lon;timestamp;temperature;humidity
50690;DHT22;71367;48.298;11.238;2023-08-06T00:06:11;14.70;99.90
50690;DHT22;71367;48.298;11.238;2023-08-06T00:21:13;14.40;99.90
50690;DHT22;71367;48.298;11.238;2023-08-06T00:36:16;14.30;99.90
50690;DHT22;71367;48.298;11.238;2023-08-06T00:51:19;14.20;99.90
50690;DHT22;71367;48.298;11.238;2023-08-06T01:06:35;14.20;99.90
50690;DHT22;71367;48.298;11.238;2023-08-06T01:21:40;14.20;99.90
50690;DHT22;71367;48.298;11.238;2023-08-06T01:36:43;14.10;99.90
50690;DHT22;71367;48.298;11.238;2023-08-06T01:51:45;14.00;99.90
50690;DHT22;71367;48.298;11.238;2023-08-06T02:06:48;13.80;99.90
50690;DHT22;71367;48.298;11.238;2023-08-06T02:21:50;13.70;99.90
50690;DHT22;71367;48.298;11.238;2023-08-06T02:36:52;13.60;99.90
50690;DHT22;71367;48.298;11.238;2023-08-06T02:51:55;13.50;99.90
50690;DHT22;71367;48.298;11.238;2023-08-06T03:06:57;13.40;99.90
50690;DHT22;71367;48.298;11.238;2023-08-06T03:22:06;13.10;99.90
50690;DHT22;71367;48.298;11.238;2023-08-06T03:37:11;13.00;99.90
50690;DHT22;71367;48.298;11.238;2023-08-06T03:52:14;12.80;99.90
50690;DHT22;71367;48.298;11.238;2023-08-06T04:07:17;12.80;99.90
50690;DHT22;71367;48.298;11.238;2023-08-06T04:22:20;12.90;99.90
50690;DHT22;71367;48.298;11.238;2023-08-06T04:37:23;13.00;99.90
50690;DHT22;71367;48.298;11.238;2023-08-06T04:52:26;13.00;99.90
50690;DHT22;71367;48.298;11.238;2023-08-06T05:07:28;13.20;99.90
50690;DHT22;71367;48.298;11.238;2023-08-06T05:22:31;13.20;99.90
50690;DHT22;71367;48.298;11.238;2023-08-06T05:37:34;13.50;99.90
50690;DHT22;71367;48.298;11.238;2023-08-06T05:52:36;13.80;99.90
50690;DHT22;71367;48.298;11.238;2023-08-06T06:07:39;14.00;99.90
50690;DHT22;71367;48.298;11.238;2023-08-06T06:22:41;14.30;99.90
50690;DHT22;71367;48.298;11.238;2023-08-06T06:37:43;14.80;99.90
50690;DHT22;71367;48.298;11.238;2023-08-06T06:52:46;15.30;99.90
50690;DHT22;71367;48.298;11.238;2023-08-06T07:07:48;16.10;99.90
50690;DHT22;71367;48.298;11.238;2023-08-06T07:22:51;15.80;99.90
50690;DHT22;71367;48.298;11.238;2023-08-06T07:37:54;15.30;99.90
50690;DHT22;71367;48.298;11.238;2023-08-06T07:52:57;15.60;99.90
50690;DHT22;71367;48.298;11.238;2023-08-06T08:07:59;16.00;99.30
50690;DHT22;71367;48.298;11.238;2023-08-06T08:23:02;15.90;98.10
50690;DHT22;71367;48.298;11.238;2023-08-06T08:38:04;16.40;96.90
50690;DHT22;71367;48.298;11.238;2023-08-06T08:53:07;16.10;96.30
50690;DHT22;71367;48.298;11.238;2023-08-06T09:08:14;16.40;96.20
50690;DHT22;71367;48.298;11.238;2023-08-06T09:23:17;16.30;97.90
50690;DHT22;71367;48.298;11.238;2023-08-06T09:38:19;15.90;98.70
50690;DHT22;71367;48.298;11.238;2023-08-06T09:53:22;15.70;98.40
50690;DHT22;71367;48.298;11.238;2023-08-06T10:08:24;16.30;97.00
50690;DHT22;71367;48.298;11.238;2023-08-06T10:23:35;16.50;95.10
50690;DHT22;71367;48.298;11.238;2023-08-06T10:38:45;16.80;95.60
50690;DHT22;71367;48.298;11.238;2023-08-06T10:53:49;17.30;94.00
50690;DHT22;71367;48.298;11.238;2023-08-06T11:08:53;17.40;93.50
50690;DHT22;71367;48.298;11.238;2023-08-06T11:23:55;17.00;93.30
50690;DHT22;71367;48.298;11.238;2023-08-06T11:38:58;17.00;94.20
50690;DHT22;71367;48.298;11.238;2023-08-06T11:54:00;16.70;94.90
50690;DHT22;71367;48.298;11.238;2023-08-06T12:09:03;17.00;94.40
50690;DHT22;71367;48.298;11.238;2023-08-06T12:24:05;16.70;94.50
50690;DHT22;71367;48.298;11.238;2023-08-06T12:39:08;16.50;94.70
50690;DHT22;71367;48.298;11.238;2023-08-06T12:54:10;17.50;95.20
50690;DHT22;71367;48.298;11.238;2023-08-06T13:09:13;15.90;97.90
50690;DHT22;71367;48.298;11.238;2023-08-06T13:24:15;15.60;99.90
50690;DHT22;71367;48.298;11.238;2023-08-06T13:39:17;16.30;98.80
50690;DHT22;71367;48.298;11.238;2023-08-06T13:54:19;15.40;99.60
50690;DHT22;71367;48.298;11.238;2023-08-06T14:09:22;15.60;99.90
50690;DHT22;71367;48.298;11.238;2023-08-06T14:24:24;15.20;99.90
50690;DHT22;71367;48.298;11.238;2023-08-06T14:39:27;14.50;99.90
50690;DHT22;71367;48.298;11.238;2023-08-06T14:54:29;14.00;99.90
50690;DHT22;71367;48.298;11.238;2023-08-06T15:09:31;13.60;99.90
50690;DHT22;71367;48.298;11.238;2023-08-06T15:24:33;14.00;99.90
50690;DHT22;71367;48.298;11.238;2023-08-06T15:39:36;14.00;99.90
50690;DHT22;71367;48.298;11.238;2023-08-06T15:54:38;14.10;99.90
50690;DHT22;71367;48.298;11.238;2023-08-06T16:09:40;13.30;99.90
50690;DHT22;71367;48.298;11.238;2023-08-06T16:24:43;13.10;99.90
50690;DHT22;71367;48.298;11.238;2023-08-06T16:39:45;13.60;99.90
50690;DHT22;71367;48.298;11.238;2023-08-06T16:54:48;13.80;99.90
50690;DHT22;71367;48.298;11.238;2023-08-06T17:09:50;13.80;99.90
50690;DHT22;71367;48.298;11.238;2023-08-06T17:24:53;13.10;99.90
50690;DHT22;71367;48.298;11.238;2023-08-06T17:39:55;13.30;99.90
50690;DHT22;71367;48.298;11.238;2023-08-06T17:54:58;13.40;99.90
50690;DHT22;71367;48.298;11.238;2023-08-06T18:10:00;13.10;99.90
50690;DHT22;71367;48.298;11.238;2023-08-06T18:25:03;12.90;99.90
50690;DHT22;71367;48.298;11.238;2023-08-06T18:40:07;12.80;99.90
50690;DHT22;71367;48.298;11.238;2023-08-06T18:55:10;12.70;99.90
50690;DHT22;71367;48.298;11.238;2023-08-06T19:10:13;12.60;99.90
50690;DHT22;71367;48.298;11.238;2023-08-06T19:25:15;12.60;99.90
50690;DHT22;71367;48.298;11.238;2023-08-06T19:40:18;12.60;99.90
50690;DHT22;71367;48.298;11.238;2023-08-06T19:55:20;12.60;99.90
50690;DHT22;71367;48.298;11.238;2023-08-06T20:10:23;12.40;99.60
50690;DHT22;71367;48.298;11.238;2023-08-06T20:25:25;12.30;99.50
50690;DHT22;71367;48.298;11.238;2023-08-06T20:40:27;12.10;99.90
50690;DHT22;71367;48.298;11.238;2023-08-06T20:55:30;12.10;99.90
50690;DHT22;71367;48.298;11.238;2023-08-06T21:10:32;12.00;99.90
50690;DHT22;71367;48.298;11.238;2023-08-06T21:25:35;12.00;99.90
50690;DHT22;71367;48.298;11.238;2023-08-06T21:40:38;11.70;99.90
50690;DHT22;71367;48.298;11.238;2023-08-06T21:55:41;11.70;99.90
50690;DHT22;71367;48.298;11.238;2023-08-06T22:10:44;11.60;99.90
50690;DHT22;71367;48.298;11.238;2023-08-06T22:25:46;11.70;99.90
50690;DHT22;71367;48.298;11.238;2023-08-06T22:40:48;11.60;99.90
50690;DHT22;71367;48.298;11.238;2023-08-06T22:55:51;11.70;99.40
50690;DHT22;71367;48.298;11.238;2023-08-06T23:10:53;11.70;99.00
50690;DHT22;71367;48.298;11.238;2023-08-06T23:25:56;11.70;99.00
50690;DHT22;71367;48.298;11.238;2023-08-06T23:40:58;11.80;98.30
50690;DHT22;71367;48.298;11.238;2023-08-06T23:56:00;11.70;98.80
